Time;durP1;ratioP1;P1;durP2;ratioP2;P2;SDS_P1;SDS_P2;PMS_P1;PMS_P2;Temp;Humidity;BMP_temperature;BMP_pressure;BME280_temperature;BME280_humidity;BME280_pressure;Samples;Min_cycle;Max_cycle;Signal;HPM_P1;HPM_P2
2023/01/03 00:01:24;;;;;;;0.10;0.10;;;9.80;99.90;12.80;163505.00;;;;5024884;28;20231;-74
2023/01/03 00:03:54;;;;;;;0.10;0.10;;;9.80;99.90;12.80;163505.00;;;;5016315;28;20216;-73
2023/01/03 00:06:28;;;;;;;0.10;0.10;;;9.80;99.90;12.80;163505.00;;;;5014536;28;20566;-74
2023/01/03 00:08:58;;;;;;;0.10;0.10;;;9.80;99.90;12.80;163505.00;;;;5019155;28;20262;-73
2023/01/03 00:14:18;;;;;;;0.10;0.10;;;9.80;99.90;12.80;163505.00;;;;5005261;28;20222;-74
2023/01/03 00:16:49;;;;;;;0.10;0.10;;;9.80;99.90;12.80;163505.00;;;;5011355;28;20200;-73
2023/01/03 00:19:18;;;;;;;0.10;0.10;;;9.80;99.90;12.80;163505.00;;;;5019960;28;20191;-74
2023/01/03 00:21:47;;;;;;;0.10;0.10;;;9.80;99.90;12.80;163505.00;;;;5019803;28;20235;-75
2023/01/03 00:24:16;;;;;;;0.10;0.10;;;9.80;99.90;12.80;163505.00;;;;5011286;28;20274;-74
2023/01/03 00:26:45;;;;;;;0.10;0.10;;;9.80;99.90;12.80;163505.00;;;;5011612;28;20718;-74
2023/01/03 00:29:13;;;;;;;0.10;0.10;;;9.70;99.90;12.80;163505.00;;;;4985914;28;20203;-73
2023/01/03 00:31:43;;;;;;;0.10;0.10;;;9.70;99.90;12.80;163505.00;;;;5011383;28;20246;-73
2023/01/03 00:34:11;;;;;;;0.10;0.10;;;9.70;99.90;12.80;163505.00;;;;5004490;28;20228;-73
2023/01/03 00:36:39;;;;;;;0.10;0.10;;;9.70;99.90;12.80;163505.00;;;;5017211;28;20719;-73
2023/01/03 00:39:10;;;;;;;0.10;0.10;;;9.70;99.90;12.80;163505.00;;;;5019574;28;20200;-73
2023/01/03 00:41:39;;;;;;;0.10;0.10;;;9.70;99.90;12.80;163505.00;;;;5011384;28;20207;-73
2023/01/03 00:44:08;;;;;;;0.10;0.10;;;9.60;99.90;12.80;163505.00;;;;5009033;28;20235;-73
2023/01/03 00:46:36;;;;;;;0.10;0.10;;;9.70;99.90;12.80;163505.00;;;;5017371;28;20572;-73
2023/01/03 00:49:05;;;;;;;0.10;0.10;;;9.60;99.90;12.80;163505.00;;;;5013258;28;20208;-73
2023/01/03 00:51:35;;;;;;;0.10;0.10;;;9.60;99.90;12.80;163505.00;;;;5014045;28;20625;-73
2023/01/03 00:54:06;;;;;;;0.10;0.10;;;9.60;99.90;12.80;163505.00;;;;5008348;28;20223;-73
2023/01/03 00:56:39;;;;;;;0.10;0.10;;;9.50;99.90;12.80;163505.00;;;;5013622;28;20734;-73
2023/01/03 00:59:08;;;;;;;0.10;0.10;;;9.50;99.90;12.80;163505.00;;;;5014770;28;20621;-73
2023/01/03 01:01:39;;;;;;;0.10;0.10;;;9.50;99.90;12.80;163505.00;;;;5014071;28;20211;-73
2023/01/03 01:04:17;;;;;;;0.10;0.10;;;9.50;99.90;12.80;163505.00;;;;5019582;28;20226;-73
2023/01/03 01:06:48;;;;;;;0.10;0.10;;;9.50;99.90;12.80;163505.00;;;;5014744;28;20618;-73
2023/01/03 01:09:22;;;;;;;0.10;0.10;;;9.50;99.90;12.80;163505.00;;;;5013883;28;20195;-73
2023/01/03 01:11:53;;;;;;;0.10;0.10;;;9.50;99.90;12.80;163505.00;;;;5012889;28;20583;-74
2023/01/03 01:14:25;;;;;;;0.10;0.10;;;9.50;99.90;12.80;163505.00;;;;5008641;28;20216;-74
2023/01/03 01:16:56;;;;;;;0.10;0.10;;;9.40;99.90;12.80;163505.00;;;;4997225;28;20325;-74
2023/01/03 01:19:27;;;;;;;0.10;0.10;;;9.40;99.90;12.80;163505.00;;;;5013848;28;20206;-74
2023/01/03 01:21:55;;;;;;;0.10;0.10;;;9.40;99.90;12.80;163505.00;;;;5025286;28;20238;-74
2023/01/03 01:24:24;;;;;;;0.10;0.10;;;9.40;99.90;12.80;163505.00;;;;5011971;28;20266;-74
2023/01/03 01:26:53;;;;;;;0.10;0.10;;;9.40;99.90;12.80;163505.00;;;;5014805;28;20204;-74
2023/01/03 01:29:21;;;;;;;0.10;0.10;;;9.40;99.90;12.80;163505.00;;;;5014255;28;20203;-74
2023/01/03 01:31:50;;;;;;;0.10;0.10;;;9.50;99.90;12.80;163505.00;;;;5014515;28;20282;-74
2023/01/03 01:34:18;;;;;;;0.10;0.10;;;9.40;99.90;12.80;163505.00;;;;5013937;28;20204;-74
2023/01/03 01:36:47;;;;;;;0.10;0.10;;;9.30;99.90;12.80;163505.00;;;;5029529;28;20202;-73
2023/01/03 01:39:20;;;;;;;0.10;0.10;;;9.30;99.90;12.80;163505.00;;;;5018967;28;20207;-73
2023/01/03 01:44:54;;;;;;;0.10;0.10;;;9.30;99.90;12.80;163505.00;;;;5013813;28;20545;-74
2023/01/03 01:47:35;;;;;;;0.10;0.10;;;9.20;99.90;12.80;163505.00;;;;5015235;28;20196;-76
2023/01/03 01:50:25;;;;;;;0.10;0.10;;;9.20;99.90;12.80;163505.00;;;;5002538;28;20208;-76
2023/01/03 01:53:10;;;;;;;0.10;0.10;;;9.30;99.90;12.80;163505.00;;;;5005265;28;20279;-76
2023/01/03 01:55:44;;;;;;;0.10;0.10;;;9.20;99.90;12.80;163505.00;;;;5011019;28;20683;-77
2023/01/03 01:58:15;;;;;;;0.10;0.10;;;9.20;99.90;12.80;163505.00;;;;5021969;28;20199;-76
2023/01/03 02:00:45;;;;;;;0.10;0.10;;;9.20;99.90;12.80;163505.00;;;;5020076;28;20191;-74
2023/01/03 02:03:14;;;;;;;0.10;0.10;;;9.20;99.90;12.80;163505.00;;;;5026602;28;20254;-74
2023/01/03 02:05:47;;;;;;;0.10;0.10;;;9.20;99.90;12.80;163505.00;;;;5019429;28;20214;-73
2023/01/03 02:08:15;;;;;;;0.10;0.10;;;9.10;99.90;12.80;163505.00;;;;5025064;28;21373;-73
2023/01/03 02:11:25;;;;;;;0.10;0.10;;;9.10;99.90;12.80;163505.00;;;;5024788;28;20287;-74
2023/01/03 02:14:28;;;;;;;0.10;0.10;;;9.10;99.90;12.80;163505.00;;;;5007358;28;20223;-74
2023/01/03 02:17:10;;;;;;;0.10;0.10;;;9.00;99.90;12.80;163505.00;;;;5013416;28;20243;-74
2023/01/03 02:20:08;;;;;;;0.10;0.10;;;8.90;99.90;12.80;163505.00;;;;5013421;28;20199;-74
2023/01/03 02:23:21;;;;;;;0.10;0.10;;;8.70;99.90;12.80;163505.00;;;;5011580;28;20786;-74
2023/01/03 02:26:33;;;;;;;0.10;0.10;;;8.80;99.90;12.80;163505.00;;;;4993723;28;20210;-74
2023/01/03 02:29:46;;;;;;;0.10;0.10;;;8.70;99.90;12.80;163505.00;;;;5010633;28;20207;-74
2023/01/03 02:32:23;;;;;;;0.10;0.10;;;8.80;99.90;12.80;163505.00;;;;5011686;28;20223;-74
2023/01/03 02:35:04;;;;;;;0.10;0.10;;;8.80;99.90;12.80;163505.00;;;;5019196;28;20200;-74
2023/01/03 02:37:57;;;;;;;0.10;0.10;;;8.70;99.90;12.80;163505.00;;;;5006611;28;20734;-75
2023/01/03 02:40:35;;;;;;;0.10;0.10;;;8.80;99.90;12.80;163505.00;;;;5005059;28;20203;-74
2023/01/03 02:43:12;;;;;;;0.10;0.10;;;8.80;99.90;12.80;163505.00;;;;5012869;28;20238;-74
2023/01/03 02:46:01;;;;;;;0.10;0.10;;;8.70;99.90;12.80;163505.00;;;;5014035;28;20610;-76
2023/01/03 02:48:45;;;;;;;0.10;0.10;;;8.80;99.90;12.80;163505.00;;;;5001982;28;20204;-75
2023/01/03 02:51:18;;;;;;;0.10;0.10;;;8.70;99.90;12.80;163505.00;;;;5009306;28;20262;-76
2023/01/03 02:53:50;;;;;;;0.10;0.10;;;8.70;99.90;12.80;163505.00;;;;5010372;28;20262;-76
2023/01/03 02:56:25;;;;;;;0.10;0.10;;;8.70;99.90;12.80;163505.00;;;;5011238;28;20196;-76
2023/01/03 02:58:58;;;;;;;0.10;0.10;;;8.80;99.90;12.80;163505.00;;;;5009070;28;20671;-76
2023/01/03 03:01:29;;;;;;;0.10;0.10;;;8.80;99.90;12.80;163505.00;;;;5011104;28;20679;-76
2023/01/03 03:04:02;;;;;;;0.10;0.10;;;8.80;99.90;12.80;163505.00;;;;5010901;28;20278;-76
2023/01/03 03:06:41;;;;;;;0.10;0.10;;;8.80;99.90;12.80;163505.00;;;;5001280;28;20204;-76
2023/01/03 03:09:09;;;;;;;0.10;0.10;;;8.80;99.90;12.80;163505.00;;;;5001528;28;20200;-76
2023/01/03 03:14:36;;;;;;;0.10;0.10;;;8.80;99.90;12.80;163505.00;;;;5002203;28;20224;-76
2023/01/03 03:17:11;;;;;;;0.10;0.10;;;8.80;99.90;12.80;163505.00;;;;5018422;28;20206;-76
2023/01/03 03:25:33;;;;;;;0.10;0.10;;;8.90;99.90;12.80;163505.00;;;;5005588;28;20530;-76
2023/01/03 03:30:55;;;;;;;0.10;0.10;;;8.90;99.90;12.80;163505.00;;;;5003803;28;20239;-76
2023/01/03 03:33:28;;;;;;;0.10;0.10;;;8.80;99.90;12.80;163505.00;;;;5007505;28;20710;-76
2023/01/03 03:36:05;;;;;;;0.10;0.10;;;8.90;99.90;12.80;163505.00;;;;5000799;28;20638;-76
2023/01/03 03:38:38;;;;;;;0.10;0.10;;;8.90;99.90;12.80;163505.00;;;;5010640;28;20719;-76
2023/01/03 03:47:13;;;;;;;0.10;0.10;;;8.90;99.90;12.80;163505.00;;;;5017098;28;20195;-76
2023/01/03 03:49:45;;;;;;;0.10;0.10;;;8.90;99.90;12.80;163505.00;;;;5016865;28;20661;-76
2023/01/03 03:52:21;;;;;;;0.10;0.10;;;9.00;99.90;12.80;163505.00;;;;5009327;28;20207;-76
2023/01/03 03:54:58;;;;;;;0.10;0.10;;;9.00;99.90;12.80;163505.00;;;;5007384;28;20589;-76
2023/01/03 03:57:33;;;;;;;0.10;0.10;;;9.00;99.90;12.80;163505.00;;;;5000449;28;20211;-76
2023/01/03 04:00:08;;;;;;;0.10;0.10;;;8.80;99.90;12.80;163505.00;;;;5008641;28;20199;-76
2023/01/03 04:02:42;;;;;;;0.10;0.10;;;8.80;99.90;12.80;163505.00;;;;5004741;28;20240;-76
2023/01/03 04:05:14;;;;;;;0.10;0.10;;;8.80;99.90;12.80;163505.00;;;;5008709;28;20196;-76
2023/01/03 04:07:43;;;;;;;0.10;0.10;;;8.80;99.90;12.80;163505.00;;;;4992427;28;20208;-76
2023/01/03 04:10:13;;;;;;;0.10;0.10;;;8.70;99.90;12.80;163505.00;;;;5010072;28;20196;-75
2023/01/03 04:12:41;;;;;;;0.10;0.10;;;8.70;99.90;12.80;163505.00;;;;4993082;28;20258;-75
2023/01/03 04:15:10;;;;;;;0.10;0.10;;;8.70;99.90;12.80;163505.00;;;;5005352;28;20223;-75
2023/01/03 04:17:38;;;;;;;0.10;0.10;;;8.60;99.90;12.80;163505.00;;;;5014942;28;20212;-76
2023/01/03 04:20:07;;;;;;;0.10;0.10;;;8.70;99.90;12.80;163505.00;;;;5011412;28;20623;-75
2023/01/03 04:22:35;;;;;;;0.10;0.10;;;8.70;99.90;12.80;163505.00;;;;5013832;28;20223;-75
2023/01/03 04:25:05;;;;;;;0.10;0.10;;;8.70;99.90;12.80;163505.00;;;;5019368;28;20207;-76
2023/01/03 04:27:33;;;;;;;0.10;0.10;;;8.70;99.90;12.80;163505.00;;;;5011314;28;20684;-75
2023/01/03 04:30:01;;;;;;;0.10;0.10;;;8.70;99.90;12.80;163505.00;;;;5018264;28;20269;-76
2023/01/03 04:32:29;;;;;;;0.10;0.10;;;8.70;99.90;12.80;163505.00;;;;5010508;28;20219;-75
2023/01/03 04:34:57;;;;;;;0.10;0.10;;;8.70;99.90;12.80;163505.00;;;;5013596;28;20231;-75
2023/01/03 04:37:25;;;;;;;0.10;0.10;;;8.70;99.90;12.80;163505.00;;;;5017864;28;20249;-75
2023/01/03 04:39:53;;;;;;;0.10;0.10;;;8.70;99.90;12.80;163505.00;;;;5016770;28;20257;-76
2023/01/03 04:45:38;;;;;;;0.10;0.10;;;8.90;99.90;12.80;163505.00;;;;4957281;28;20250;-72
2023/01/03 04:48:07;;;;;;;0.10;0.10;;;8.80;99.90;12.80;163505.00;;;;4973021;28;20208;-72
2023/01/03 04:50:35;;;;;;;0.10;0.10;;;8.80;99.90;12.80;163505.00;;;;4957702;28;20257;-71
2023/01/03 04:53:03;;;;;;;0.10;0.10;;;8.70;99.90;12.80;163505.00;;;;4975126;28;20777;-72
2023/01/03 04:55:31;;;;;;;0.10;0.10;;;8.70;99.90;12.80;163505.00;;;;4991897;28;20243;-72
2023/01/03 04:58:01;;;;;;;0.10;0.10;;;8.70;99.90;12.80;163505.00;;;;4990819;28;20205;-72
2023/01/03 05:00:29;;;;;;;0.10;0.10;;;8.70;99.90;12.80;163505.00;;;;4990408;28;20193;-72
2023/01/03 05:02:57;;;;;;;0.10;0.10;;;8.70;99.90;12.80;163505.00;;;;4991754;28;20220;-72
2023/01/03 05:05:24;;;;;;;0.10;0.10;;;8.70;99.90;12.80;163505.00;;;;4980554;28;20200;-71
2023/01/03 05:07:53;;;;;;;0.10;0.10;;;8.70;99.90;12.80;163505.00;;;;4988226;28;20188;-71
2023/01/03 05:10:21;;;;;;;0.10;0.10;;;8.70;99.90;12.80;163505.00;;;;4986018;28;20197;-72
2023/01/03 05:12:58;;;;;;;0.10;0.10;;;8.70;99.90;12.80;163505.00;;;;4991262;28;20547;-71
2023/01/03 05:15:29;;;;;;;0.10;0.10;;;8.60;99.90;12.80;163505.00;;;;4990621;28;20224;-72
2023/01/03 05:17:57;;;;;;;0.10;0.10;;;8.70;99.90;12.80;163505.00;;;;4975740;28;20196;-71
2023/01/03 05:26:04;;;;;;;0.10;0.10;;;8.60;99.90;12.80;163505.00;;;;4983472;28;20263;-71
2023/01/03 05:28:32;;;;;;;0.10;0.10;;;8.60;99.90;12.80;163505.00;;;;4990824;28;20251;-71
2023/01/03 05:31:02;;;;;;;0.10;0.10;;;8.60;99.90;12.80;163505.00;;;;4989976;28;20212;-71
2023/01/03 05:33:30;;;;;;;0.10;0.10;;;8.60;99.90;12.80;163505.00;;;;4991361;28;20220;-72
2023/01/03 05:35:59;;;;;;;0.10;0.10;;;8.60;99.90;12.80;163505.00;;;;4980343;28;20235;-72
2023/01/03 05:38:27;;;;;;;0.10;0.10;;;8.70;99.90;12.80;163505.00;;;;4994853;28;20201;-72
2023/01/03 05:40:55;;;;;;;0.10;0.10;;;8.60;99.90;12.80;163505.00;;;;4994390;28;20310;-72
2023/01/03 05:43:23;;;;;;;0.10;0.10;;;8.60;99.90;12.80;163505.00;;;;4991788;28;20654;-72
2023/01/03 05:45:52;;;;;;;0.10;0.10;;;8.70;99.90;12.80;163505.00;;;;4994121;28;20200;-72
2023/01/03 05:48:22;;;;;;;0.10;0.10;;;8.60;99.90;12.80;163505.00;;;;4993999;28;20653;-73
2023/01/03 05:50:51;;;;;;;0.10;0.10;;;8.60;99.90;12.80;163505.00;;;;4992184;28;20232;-72
2023/01/03 05:53:18;;;;;;;0.10;0.10;;;8.60;99.90;12.80;163505.00;;;;4993336;28;20254;-72
2023/01/03 05:55:47;;;;;;;0.10;0.10;;;8.60;99.90;12.80;163505.00;;;;4993496;28;20230;-72
2023/01/03 05:58:16;;;;;;;0.10;0.10;;;8.60;99.90;12.80;163505.00;;;;4988590;28;20188;-72
2023/01/03 06:00:44;;;;;;;0.10;0.10;;;8.60;99.90;12.80;163505.00;;;;4994276;28;20251;-73
2023/01/03 06:03:13;;;;;;;0.10;0.10;;;8.60;99.90;12.80;163505.00;;;;4990102;28;20219;-72
2023/01/03 06:05:43;;;;;;;0.10;0.10;;;8.60;99.90;12.80;163505.00;;;;4991116;28;20748;-73
2023/01/03 06:08:17;;;;;;;0.10;0.10;;;8.60;99.90;12.80;163505.00;;;;4986881;28;20302;-73
2023/01/03 06:10:45;;;;;;;0.10;0.10;;;8.50;99.90;12.80;163505.00;;;;4994611;28;20354;-73
2023/01/03 06:13:13;;;;;;;0.10;0.10;;;8.60;99.90;12.80;163505.00;;;;4993778;28;20643;-73
2023/01/03 06:15:41;;;;;;;0.10;0.10;;;8.50;99.90;12.80;163505.00;;;;4993195;28;20685;-74
2023/01/03 06:18:08;;;;;;;0.05;0.05;;;8.50;99.90;12.80;163505.00;;;;4990567;28;20200;-72
2023/01/03 06:20:36;;;;;;;0.10;0.10;;;8.50;99.90;12.80;163505.00;;;;4994201;28;20224;-72
2023/01/03 06:23:07;;;;;;;0.10;0.10;;;8.40;99.90;12.80;163505.00;;;;4993587;28;20216;-72
2023/01/03 06:25:35;;;;;;;0.10;0.10;;;8.40;99.90;12.80;163505.00;;;;4993461;28;20188;-74
2023/01/03 06:28:04;;;;;;;0.10;0.10;;;8.30;99.90;12.80;163505.00;;;;4993655;28;20216;-73
2023/01/03 06:30:32;;;;;;;0.10;0.10;;;8.30;99.90;12.80;163505.00;;;;4993605;28;20201;-71
2023/01/03 06:33:00;;;;;;;0.10;0.10;;;8.30;99.90;12.80;163505.00;;;;4993568;28;20220;-74
2023/01/03 06:35:28;;;;;;;0.10;0.10;;;8.20;99.90;12.80;163505.00;;;;4993515;28;20232;-74
2023/01/03 06:37:57;;;;;;;0.10;0.10;;;8.20;99.90;12.80;163505.00;;;;4992885;28;20200;-75
2023/01/03 06:40:26;;;;;;;0.10;0.10;;;8.20;99.90;12.80;163505.00;;;;4993693;28;20614;-74
2023/01/03 06:43:03;;;;;;;0.10;0.10;;;8.10;99.90;12.80;163505.00;;;;4992851;28;20228;-74
2023/01/03 06:53:49;;;;;;;0.10;0.10;;;7.80;99.90;12.80;163505.00;;;;4993021;28;20352;-74
2023/01/03 06:56:18;;;;;;;0.10;0.10;;;7.90;99.90;12.80;163505.00;;;;4988138;28;20228;-74
2023/01/03 06:58:46;;;;;;;0.10;0.10;;;7.80;99.90;12.80;163505.00;;;;4993141;28;20661;-74
2023/01/03 07:01:15;;;;;;;0.10;0.10;;;7.80;99.90;12.80;163505.00;;;;4993235;28;20263;-74
2023/01/03 07:03:43;;;;;;;0.10;0.10;;;7.70;99.90;12.80;163505.00;;;;4992731;28;20216;-74
2023/01/03 07:06:10;;;;;;;0.10;0.10;;;7.70;99.90;12.80;163505.00;;;;4991106;28;20212;-74
2023/01/03 07:08:39;;;;;;;0.10;0.10;;;7.60;99.90;12.80;163505.00;;;;4991408;28;20235;-74
2023/01/03 07:11:15;;;;;;;0.10;0.10;;;7.50;99.90;12.80;163505.00;;;;4989076;28;20204;-74
2023/01/03 07:13:58;;;;;;;0.10;0.10;;;7.50;99.90;12.80;163505.00;;;;4985295;28;20271;-74
2023/01/03 07:16:29;;;;;;;0.10;0.10;;;7.50;99.90;12.80;163505.00;;;;4990155;28;20216;-74
2023/01/03 07:18:58;;;;;;;0.10;0.10;;;7.50;99.90;12.80;163505.00;;;;4991509;28;20196;-74
2023/01/03 07:21:29;;;;;;;0.10;0.10;;;7.40;99.90;12.80;163505.00;;;;4993296;28;20669;-75
2023/01/03 07:24:01;;;;;;;0.10;0.10;;;7.40;99.90;12.80;163505.00;;;;4992199;28;20228;-74
2023/01/03 07:26:32;;;;;;;0.10;0.10;;;7.40;99.90;12.80;163505.00;;;;4990420;28;20208;-74
2023/01/03 07:29:07;;;;;;;0.10;0.10;;;7.40;99.90;12.80;163505.00;;;;4992167;28;20196;-74
2023/01/03 07:31:39;;;;;;;0.10;0.10;;;7.40;99.90;12.80;163505.00;;;;4993022;28;20234;-74
2023/01/03 07:34:08;;;;;;;0.10;0.10;;;7.40;99.90;12.80;163505.00;;;;4992564;28;20716;-73
2023/01/03 07:36:36;;;;;;;0.10;0.10;;;7.40;99.90;12.80;163505.00;;;;4992497;28;20622;-74
2023/01/03 07:39:04;;;;;;;0.10;0.10;;;7.40;99.90;12.80;163505.00;;;;4988962;28;20204;-74
2023/01/03 07:44:20;;;;;;;0.10;0.10;;;7.40;99.90;12.80;163505.00;;;;4986663;28;20222;-74
2023/01/03 07:46:48;;;;;;;0.10;0.10;;;7.40;99.90;12.80;163505.00;;;;4992322;28;20682;-73
2023/01/03 07:49:16;;;;;;;0.10;0.10;;;7.40;99.90;12.80;163505.00;;;;4990586;28;20696;-74
2023/01/03 07:51:44;;;;;;;0.10;0.10;;;7.40;99.90;12.80;163505.00;;;;4992161;28;20271;-73
2023/01/03 07:54:12;;;;;;;0.10;0.10;;;7.30;99.90;12.80;163505.00;;;;4992046;28;20243;-73
2023/01/03 07:56:40;;;;;;;0.10;0.10;;;7.20;99.90;12.80;163505.00;;;;4988212;28;20225;-73
2023/01/03 07:59:08;;;;;;;0.10;0.10;;;7.20;99.90;12.80;163505.00;;;;4990022;28;20236;-73
2023/01/03 08:01:37;;;;;;;0.10;0.10;;;7.20;99.90;12.80;163505.00;;;;4992141;28;20255;-73
2023/01/03 08:04:05;;;;;;;0.10;0.10;;;7.20;99.90;12.80;163505.00;;;;4992303;28;20685;-73
2023/01/03 08:06:33;;;;;;;0.10;0.10;;;7.20;99.90;12.80;163505.00;;;;4992809;28;20204;-73
2023/01/03 08:14:32;;;;;;;0.10;0.10;;;7.30;99.90;12.80;163505.00;;;;4989898;28;20212;-73
2023/01/03 08:17:02;;;;;;;0.10;0.10;;;7.40;99.90;12.80;163505.00;;;;4990967;28;20220;-72
2023/01/03 08:19:30;;;;;;;0.10;0.10;;;7.30;99.90;12.80;163505.00;;;;4984658;28;20196;-73
2023/01/03 08:21:57;;;;;;;0.10;0.10;;;7.30;99.90;12.80;163505.00;;;;4991368;28;20339;-73
2023/01/03 08:24:25;;;;;;;0.10;0.10;;;7.30;99.90;12.80;163505.00;;;;4991747;28;20231;-73
2023/01/03 08:26:53;;;;;;;0.10;0.10;;;7.30;99.90;12.80;163505.00;;;;4991484;28;20254;-72
2023/01/03 08:29:21;;;;;;;0.10;0.10;;;7.40;99.90;12.80;163505.00;;;;4991452;28;20231;-73
2023/01/03 08:31:55;;;;;;;0.10;0.10;;;7.40;99.90;12.80;163505.00;;;;4991570;28;20205;-75
2023/01/03 08:34:35;;;;;;;0.10;0.10;;;7.50;99.90;12.80;163505.00;;;;4984847;28;20629;-74
2023/01/03 08:37:09;;;;;;;0.10;0.10;;;7.40;99.90;12.80;163505.00;;;;4991534;28;20798;-74
2023/01/03 08:39:42;;;;;;;0.10;0.10;;;7.50;99.90;12.80;163505.00;;;;4991344;28;20635;-74
2023/01/03 08:42:15;;;;;;;0.10;0.10;;;7.50;99.90;12.80;163505.00;;;;4990117;28;20208;-74
2023/01/03 08:44:43;;;;;;;0.10;0.10;;;7.50;99.90;12.80;163505.00;;;;4991231;28;20224;-74
2023/01/03 08:47:13;;;;;;;0.10;0.10;;;7.60;99.90;12.80;163505.00;;;;4991371;28;20205;-75
2023/01/03 08:49:43;;;;;;;0.10;0.10;;;7.50;99.90;12.80;163505.00;;;;4991480;28;20227;-75
2023/01/03 08:52:11;;;;;;;0.10;0.10;;;7.40;99.90;12.80;163505.00;;;;4991267;28;20200;-74
2023/01/03 08:54:39;;;;;;;0.10;0.10;;;7.40;99.90;12.80;163505.00;;;;4991234;28;20708;-74
2023/01/03 08:57:07;;;;;;;0.10;0.10;;;7.40;99.90;12.80;163505.00;;;;4991378;28;20278;-75
2023/01/03 08:59:34;;;;;;;0.10;0.10;;;7.30;99.90;12.80;163505.00;;;;4991238;28;20658;-75
2023/01/03 09:02:03;;;;;;;0.10;0.10;;;7.30;99.90;12.80;163505.00;;;;4991084;28;20204;-75
2023/01/03 09:04:31;;;;;;;0.10;0.10;;;7.40;99.90;12.80;163505.00;;;;4991575;28;20588;-75
2023/01/03 09:07:00;;;;;;;0.10;0.10;;;7.40;99.90;12.80;163505.00;;;;4985531;28;20208;-74
2023/01/03 09:09:28;;;;;;;0.10;0.10;;;7.50;99.90;12.80;163505.00;;;;4991246;28;20195;-74
2023/01/03 09:11:56;;;;;;;0.10;0.10;;;7.40;99.90;12.80;163505.00;;;;4995058;28;20665;-74
2023/01/03 09:14:24;;;;;;;0.10;0.10;;;7.40;99.90;12.80;163505.00;;;;4986729;28;20445;-74
2023/01/03 09:16:52;;;;;;;0.10;0.10;;;7.40;99.90;12.80;163505.00;;;;4994635;28;20224;-75
2023/01/03 09:19:20;;;;;;;0.10;0.10;;;7.50;99.90;12.80;163505.00;;;;4994773;28;20224;-74
2023/01/03 09:21:48;;;;;;;0.10;0.10;;;7.60;99.90;12.80;163505.00;;;;4995718;28;20641;-74
2023/01/03 09:24:17;;;;;;;0.10;0.10;;;7.70;99.90;12.80;163505.00;;;;4996959;28;20216;-74
2023/01/03 09:26:45;;;;;;;0.10;0.10;;;7.70;99.90;12.80;163505.00;;;;4995108;28;20196;-75
2023/01/03 09:29:21;;;;;;;0.10;0.10;;;7.70;99.90;12.80;163505.00;;;;4978535;28;20242;-74
2023/01/03 09:31:49;;;;;;;0.10;0.10;;;7.60;99.90;12.80;163505.00;;;;4983841;28;20818;-74
2023/01/03 09:34:18;;;;;;;0.10;0.10;;;7.60;99.90;12.80;163505.00;;;;4991728;28;20216;-75
2023/01/03 09:36:46;;;;;;;0.10;0.10;;;7.60;99.90;12.80;163505.00;;;;4994773;28;20212;-73
2023/01/03 09:39:14;;;;;;;0.10;0.10;;;7.60;99.90;12.80;163505.00;;;;4994291;28;20248;-73
2023/01/03 09:41:44;;;;;;;0.10;0.10;;;7.60;99.90;12.80;163505.00;;;;4994739;28;20618;-73
2023/01/03 09:44:12;;;;;;;0.10;0.10;;;7.60;99.90;12.80;163505.00;;;;4994358;28;20327;-73
2023/01/03 09:46:40;;;;;;;0.10;0.10;;;7.60;99.90;12.80;163505.00;;;;4994360;28;20204;-74
2023/01/03 09:49:08;;;;;;;0.10;0.10;;;7.60;99.90;12.80;163505.00;;;;4993908;28;20681;-73
2023/01/03 10:03:44;;;;;;;0.10;0.10;;;7.90;99.90;12.80;163505.00;;;;4992737;28;20220;-73
2023/01/03 10:06:38;;;;;;;0.10;0.10;;;8.00;99.90;12.80;163505.00;;;;4986237;28;20566;-73
2023/01/03 10:09:23;;;;;;;0.10;0.10;;;8.10;99.90;12.80;163505.00;;;;4993837;28;20641;-73
2023/01/03 10:12:08;;;;;;;0.10;0.10;;;8.10;99.90;12.80;163505.00;;;;4989333;28;20204;-73
2023/01/03 10:14:58;;;;;;;0.10;0.10;;;8.10;99.90;12.80;163505.00;;;;4986728;28;20204;-73
2023/01/03 10:17:37;;;;;;;0.10;0.10;;;8.20;99.90;12.80;163505.00;;;;4990753;28;20220;-74
2023/01/03 10:20:27;;;;;;;0.10;0.10;;;8.20;99.90;12.80;163505.00;;;;4993710;28;20207;-73
2023/01/03 10:23:00;;;;;;;0.10;0.10;;;8.20;99.90;12.80;163505.00;;;;4991397;28;20217;-73
2023/01/03 10:25:29;;;;;;;0.10;0.10;;;8.20;99.90;12.80;163505.00;;;;4994194;28;20189;-74
2023/01/03 10:28:06;;;;;;;0.10;0.10;;;8.30;99.90;12.80;163505.00;;;;4993380;28;20197;-73
2023/01/03 10:30:52;;;;;;;0.10;0.10;;;8.30;99.90;12.80;163505.00;;;;4989064;28;20228;-74
2023/01/03 10:33:34;;;;;;;0.10;0.10;;;8.30;99.90;12.80;163505.00;;;;4986998;28;20268;-73
2023/01/03 10:36:02;;;;;;;0.10;0.10;;;8.40;99.90;12.80;163505.00;;;;4986940;28;20227;-73
2023/01/03 10:38:30;;;;;;;0.10;0.10;;;8.50;99.90;12.80;163505.00;;;;4990886;28;20189;-73
2023/01/03 10:41:16;;;;;;;0.10;0.10;;;8.50;99.90;12.80;163505.00;;;;4986010;28;20266;-73
2023/01/03 10:43:56;;;;;;;0.10;0.10;;;8.60;99.90;12.80;163505.00;;;;5019112;23;20277;-74
2023/01/03 10:46:26;;;;;;;0.10;0.10;;;8.80;99.90;12.80;163505.00;;;;5014369;28;20214;-76
2023/01/03 10:49:11;;;;;;;0.10;0.10;;;8.80;99.90;12.80;163505.00;;;;5013699;28;20204;-74
2023/01/03 10:52:00;;;;;;;0.10;0.10;;;8.80;99.90;12.80;163505.00;;;;5020147;28;20203;-76
2023/01/03 10:54:48;;;;;;;0.10;0.10;;;8.90;99.90;12.80;163505.00;;;;4998707;28;20217;-76
2023/01/03 10:57:43;;;;;;;0.10;0.10;;;9.00;99.90;12.80;163505.00;;;;4997785;28;20223;-76
2023/01/03 11:00:28;;;;;;;0.10;0.10;;;8.80;99.90;12.80;163505.00;;;;5002800;28;20298;-74
2023/01/03 11:03:14;;;;;;;0.05;0.05;;;8.70;99.90;12.80;163505.00;;;;5013398;28;20218;-76
2023/01/03 11:05:46;;;;;;;0.10;0.10;;;8.80;99.90;12.80;163505.00;;;;5013381;28;20282;-74
2023/01/03 11:08:21;;;;;;;0.10;0.10;;;8.70;99.90;12.80;163505.00;;;;5014029;28;20203;-77
2023/01/03 11:10:54;;;;;;;0.10;0.10;;;8.70;99.90;12.80;163505.00;;;;5014579;28;20192;-74
2023/01/03 11:13:33;;;;;;;0.10;0.10;;;8.80;99.90;12.80;163505.00;;;;5005836;28;20219;-77
2023/01/03 11:16:12;;;;;;;0.10;0.10;;;8.90;99.90;12.80;163505.00;;;;5016706;28;20208;-76
2023/01/03 11:18:43;;;;;;;0.10;0.10;;;8.90;99.90;12.80;163505.00;;;;5014193;28;20315;-75
2023/01/03 11:21:22;;;;;;;0.10;0.10;;;8.90;99.90;12.80;163505.00;;;;5022948;28;20943;-75
2023/01/03 11:24:07;;;;;;;0.10;0.10;;;8.80;99.90;12.80;163505.00;;;;5013130;28;20227;-74
2023/01/03 11:26:47;;;;;;;0.10;0.10;;;8.80;99.90;12.80;163505.00;;;;4991602;28;20200;-75
2023/01/03 11:29:33;;;;;;;0.10;0.10;;;8.80;99.90;12.80;163505.00;;;;5013917;28;20199;-75
2023/01/03 11:32:20;;;;;;;0.10;0.10;;;8.70;99.90;12.80;163505.00;;;;5013768;28;20258;-77
2023/01/03 11:35:27;;;;;;;0.10;0.10;;;8.70;99.90;12.80;163505.00;;;;5004640;28;20274;-74
2023/01/03 11:38:14;;;;;;;0.10;0.10;;;8.70;99.90;12.80;163505.00;;;;5011151;28;20227;-74
2023/01/03 11:40:51;;;;;;;0.10;0.10;;;8.60;99.90;12.80;163505.00;;;;5014711;28;20253;-74
2023/01/03 11:43:39;;;;;;;0.10;0.10;;;8.70;99.90;12.80;163505.00;;;;4992556;28;20218;-74
2023/01/03 11:46:39;;;;;;;0.10;0.10;;;8.70;99.90;12.80;163505.00;;;;5013276;28;20625;-74
2023/01/03 11:49:28;;;;;;;0.10;0.10;;;8.70;99.90;12.80;163505.00;;;;5015555;28;20228;-74
2023/01/03 11:52:18;;;;;;;0.10;0.10;;;8.80;99.90;12.80;163505.00;;;;5009923;28;20650;-77
2023/01/03 11:55:14;;;;;;;0.10;0.10;;;8.90;99.90;12.80;163505.00;;;;5012257;28;20231;-74
2023/01/03 11:57:55;;;;;;;0.05;0.05;;;9.10;99.90;12.80;163505.00;;;;5003003;28;20697;-74
2023/01/03 12:00:34;;;;;;;0.10;0.10;;;10.20;99.90;12.80;163505.00;;;;5005932;28;20203;-75
2023/01/03 12:03:09;;;;;;;0.10;0.10;;;13.70;99.90;12.80;163505.00;;;;5018450;28;20250;-74
2023/01/03 12:05:44;;;;;;;0.10;0.10;;;14.00;99.90;12.80;163505.00;;;;5028029;28;20211;-75
2023/01/03 12:08:43;;;;;;;0.10;0.10;;;15.00;99.90;12.80;163505.00;;;;5027995;28;20203;-74
2023/01/03 12:11:29;;;;;;;0.10;0.10;;;15.60;99.90;12.80;163505.00;;;;5026967;28;20668;-74
2023/01/03 12:14:06;;;;;;;0.10;0.10;;;15.20;99.90;12.80;163505.00;;;;5019280;28;20215;-74
2023/01/03 12:16:39;;;;;;;0.10;0.10;;;15.60;99.90;12.80;163505.00;;;;5013001;28;20199;-74
2023/01/03 12:19:26;;;;;;;0.05;0.05;;;15.80;99.90;12.80;163505.00;;;;5012727;28;20289;-74
2023/01/03 12:22:03;;;;;;;0.10;0.10;;;14.30;99.90;12.80;163505.00;;;;5012892;28;20208;-74
2023/01/03 12:24:41;;;;;;;0.10;0.10;;;12.40;99.90;12.80;163505.00;;;;5012625;28;20215;-74